createdAt,value
2022-10-28T00:01:11.388Z,184.37
2022-10-28T00:03:41.089Z,107.40
2022-10-28T00:06:11.717Z,169.47
2022-10-28T00:08:40.235Z,57.37
2022-10-28T00:11:10.728Z,295.13
2022-10-28T00:13:39.556Z,107.23
2022-10-28T00:16:11.851Z,219.60
2022-10-28T00:18:40.666Z,168.17
2022-10-28T00:21:12.530Z,184.07
2022-10-28T00:23:41.369Z,309.67
2022-10-28T00:26:11.009Z,111.90
2022-10-28T00:28:42.651Z,72.93
2022-10-28T00:31:14.152Z,256.80
2022-10-28T00:33:42.478Z,285.37
2022-10-28T00:36:15.718Z,287.43
2022-10-28T00:38:45.074Z,207.37
2022-10-28T00:41:15.278Z,175.70
2022-10-28T00:43:45.019Z,263.23
2022-10-28T00:46:20.837Z,430.77
2022-10-28T00:48:52.055Z,315.00
2022-10-28T00:51:23.927Z,452.37
2022-10-28T00:53:54.264Z,186.67
2022-10-28T00:56:23.597Z,492.93
2022-10-28T00:58:52.774Z,573.07
2022-10-28T01:01:22.429Z,299.60
2022-10-28T01:03:50.616Z,119.00
2022-10-28T01:06:18.688Z,424.97
2022-10-28T01:08:46.743Z,212.57
2022-10-28T01:11:35.746Z,147.33
2022-10-28T01:14:17.424Z,165.03
2022-10-28T01:16:59.052Z,145.77
2022-10-28T01:19:51.728Z,57.57
2022-10-28T01:22:24.527Z,174.87
2022-10-28T01:25:12.277Z,283.83
2022-10-28T01:28:10.021Z,138.80
2022-10-28T01:31:00.999Z,257.67
2022-10-28T01:33:35.265Z,213.40
2022-10-28T01:36:09.959Z,373.70
2022-10-28T01:38:48.379Z,298.67
2022-10-28T01:41:19.812Z,326.67
2022-10-28T01:43:53.439Z,254.87
2022-10-28T01:46:29.452Z,107.37
2022-10-28T01:49:01.292Z,208.17
2022-10-28T01:51:33.454Z,176.43
2022-10-28T01:54:04.832Z,111.13
2022-10-28T01:56:37.140Z,158.77
2022-10-28T01:59:08.961Z,314.70
2022-10-28T02:01:38.692Z,96.33
2022-10-28T02:04:06.975Z,162.17
2022-10-28T02:06:35.888Z,143.27
2022-10-28T02:09:23.234Z,166.00
2022-10-28T02:12:16.396Z,169.17
2022-10-28T02:15:18.573Z,33.97
2022-10-28T02:18:03.132Z,297.37
2022-10-28T02:20:38.832Z,211.67
2022-10-28T02:23:18.194Z,97.87
2022-10-28T02:25:52.558Z,120.63
2022-10-28T02:28:26.064Z,361.77
2022-10-28T02:31:00.308Z,264.23
2022-10-28T02:33:33.541Z,185.77
2022-10-28T02:36:05.776Z,228.10
2022-10-28T02:38:37.142Z,195.27
2022-10-28T02:41:10.077Z,156.37
2022-10-28T02:43:39.302Z,141.07
2022-10-28T02:46:09.449Z,147.97
2022-10-28T02:48:44.001Z,312.43
2022-10-28T02:51:15.053Z,183.33
2022-10-28T02:53:51.576Z,302.07
2022-10-28T02:56:22.376Z,375.17
2022-10-28T02:58:50.636Z,354.40
2022-10-28T03:01:19.089Z,183.17
2022-10-28T03:03:48.724Z,287.33
2022-10-28T03:06:16.830Z,385.63
2022-10-28T03:08:44.926Z,249.20
2022-10-28T03:11:13.039Z,228.87
2022-10-28T03:13:41.084Z,232.70
2022-10-28T03:16:09.304Z,110.07
2022-10-28T03:18:37.486Z,250.47
2022-10-28T03:21:07.130Z,127.97
2022-10-28T03:23:35.429Z,98.00
2022-10-28T03:26:03.523Z,271.50
2022-10-28T03:28:31.590Z,288.63
2022-10-28T03:30:59.659Z,323.63
2022-10-28T03:33:27.768Z,359.70
2022-10-28T03:35:55.923Z,400.47
2022-10-28T03:38:25.430Z,451.13
2022-10-28T03:40:53.507Z,114.70
2022-10-28T03:43:21.556Z,83.63
2022-10-28T03:45:49.866Z,285.37
2022-10-28T03:48:17.946Z,387.10
2022-10-28T03:50:46.034Z,289.90
2022-10-28T03:53:14.080Z,314.90
2022-10-28T03:55:43.526Z,171.73
2022-10-28T03:58:11.561Z,385.50
2022-10-28T04:00:39.665Z,322.40
2022-10-28T04:03:07.717Z,235.00
2022-10-28T04:05:35.819Z,158.17
2022-10-28T04:08:03.896Z,385.07
2022-10-28T04:10:31.953Z,454.67
2022-10-28T04:13:02.790Z,263.90
2022-10-28T04:15:31.043Z,318.60
2022-10-28T04:17:59.171Z,227.87
2022-10-28T04:20:27.932Z,226.87
2022-10-28T04:22:57.230Z,216.83
2022-10-28T04:25:27.184Z,395.17
2022-10-28T04:27:55.983Z,225.07
2022-10-28T04:30:25.981Z,138.03
2022-10-28T04:32:54.076Z,408.20
2022-10-28T04:35:22.153Z,248.93
2022-10-28T04:37:51.871Z,166.33
2022-10-28T04:40:20.359Z,268.77
2022-10-28T04:42:48.446Z,300.50
2022-10-28T04:45:16.764Z,196.70
2022-10-28T04:47:46.271Z,347.73
2022-10-28T04:50:14.364Z,229.60
2022-10-28T04:52:42.432Z,225.77
2022-10-28T04:55:10.837Z,123.33
2022-10-28T04:57:38.923Z,68.40
2022-10-28T05:00:08.048Z,318.37
2022-10-28T05:02:36.124Z,337.80
2022-10-28T05:05:06.102Z,391.33
2022-10-28T05:07:34.203Z,227.80
2022-10-28T05:10:02.251Z,428.07
2022-10-28T05:12:30.364Z,115.80
2022-10-28T05:14:58.420Z,239.53
2022-10-28T05:17:26.601Z,249.23
2022-10-28T05:19:54.685Z,547.90
2022-10-28T05:22:24.131Z,476.07
2022-10-28T05:24:52.175Z,168.43
2022-10-28T05:27:20.269Z,344.67
2022-10-28T05:29:48.310Z,352.77
2022-10-28T05:32:16.383Z,181.60
2022-10-28T05:34:44.422Z,228.80
2022-10-28T05:37:12.796Z,78.33
2022-10-28T05:39:42.244Z,118.27
2022-10-28T05:42:10.440Z,109.27
2022-10-28T05:44:38.514Z,174.37
2022-10-28T05:47:06.672Z,110.30
2022-10-28T05:49:34.730Z,162.53
2022-10-28T05:52:02.829Z,85.77
2022-10-28T05:54:30.988Z,266.57
2022-10-28T05:57:00.527Z,337.30
2022-10-28T05:59:28.599Z,193.90
2022-10-28T06:01:56.766Z,221.17
2022-10-28T06:04:25.041Z,252.73
2022-10-28T06:06:55.915Z,169.87
2022-10-28T06:09:24.013Z,182.00
2022-10-28T06:11:50.560Z,107.97
2022-10-28T06:14:19.994Z,274.77
2022-10-28T06:16:48.096Z,156.57
2022-10-28T06:19:16.219Z,271.93
2022-10-28T06:21:44.772Z,77.17
2022-10-28T06:24:12.844Z,93.17
2022-10-28T06:26:41.126Z,310.20
2022-10-28T06:29:10.507Z,216.47
2022-10-28T06:31:40.620Z,326.73
2022-10-28T06:34:09.074Z,217.50
2022-10-28T06:36:37.398Z,332.87
2022-10-28T06:39:06.011Z,135.30
2022-10-28T06:41:34.371Z,319.10
2022-10-28T06:44:02.608Z,303.03
2022-10-28T06:46:31.076Z,272.23
2022-10-28T06:49:03.221Z,527.27
2022-10-28T06:51:31.937Z,367.20
2022-10-28T06:54:00.375Z,626.17
2022-10-28T06:56:28.473Z,603.97
2022-10-28T06:58:56.594Z,448.73
2022-10-28T07:01:24.777Z,505.77
2022-10-28T07:03:52.879Z,528.70
2022-10-28T07:06:22.343Z,466.87
2022-10-28T07:08:50.414Z,464.27
2022-10-28T07:11:19.090Z,586.83
2022-10-28T07:13:48.953Z,672.63
2022-10-28T07:16:17.264Z,277.53
2022-10-28T07:18:45.443Z,668.77
2022-10-28T07:21:14.363Z,607.17
2022-10-28T07:23:43.840Z,574.47
2022-10-28T07:26:11.917Z,353.30
2022-10-28T07:28:40.018Z,424.10
2022-10-28T07:31:08.363Z,447.53
2022-10-28T07:33:36.525Z,197.43
2022-10-28T07:36:05.938Z,349.63
2022-10-28T07:38:34.595Z,309.90
2022-10-28T07:41:07.394Z,379.70
2022-10-28T07:43:37.549Z,662.37
2022-10-28T07:46:06.614Z,662.00
2022-10-28T07:48:34.903Z,681.97
2022-10-28T07:51:04.207Z,318.42
2022-10-28T07:53:32.843Z,288.02
2022-10-28T07:56:02.987Z,580.83
2022-10-28T07:58:32.557Z,223.00
2022-10-28T08:01:04.086Z,417.55
2022-10-28T08:03:38.664Z,589.70
2022-10-28T08:06:09.473Z,634.47
2022-10-28T08:08:38.370Z,540.17
2022-10-28T08:11:13.350Z,522.25
2022-10-28T08:13:43.374Z,523.22
2022-10-28T08:16:11.486Z,431.85
2022-10-28T08:18:40.463Z,451.83
2022-10-28T08:21:11.377Z,332.75
2022-10-28T08:23:41.466Z,234.00
2022-10-28T08:26:09.636Z,373.58
2022-10-28T08:28:37.721Z,517.17
2022-10-28T08:31:09.520Z,470.05
2022-10-28T08:33:39.106Z,369.38
2022-10-28T08:36:08.173Z,343.85
2022-10-28T08:38:36.268Z,532.50
2022-10-28T08:41:13.796Z,437.33
2022-10-28T08:43:57.731Z,668.95
2022-10-28T08:46:44.326Z,517.25
2022-10-28T08:49:14.757Z,460.58
2022-10-28T08:51:49.396Z,630.78
2022-10-28T08:54:21.065Z,513.55
2022-10-28T08:56:50.896Z,485.48
2022-10-28T08:59:23.022Z,498.70
2022-10-28T09:04:36.970Z,505.33
2022-10-28T09:07:05.816Z,564.97
2022-10-28T09:09:34.517Z,474.83
2022-10-28T09:12:13.649Z,530.85
2022-10-28T09:14:55.072Z,440.63
2022-10-28T09:17:34.165Z,430.88
2022-10-28T09:20:08.483Z,486.00
2022-10-28T09:22:44.964Z,557.80
2022-10-28T09:25:23.706Z,434.30
2022-10-28T09:28:02.330Z,588.40
2022-10-28T09:30:37.232Z,668.45
2022-10-28T09:33:28.372Z,507.02
2022-10-28T09:35:58.420Z,609.38
2022-10-28T09:38:29.759Z,595.03
2022-10-28T09:41:02.699Z,694.83
2022-10-28T09:43:34.057Z,570.58
2022-10-28T09:46:07.360Z,677.42
2022-10-28T09:48:40.021Z,612.60
2022-10-28T09:51:08.468Z,650.13
2022-10-28T09:53:43.917Z,544.58
2022-10-28T09:56:12.278Z,571.72
2022-10-28T09:58:44.612Z,697.92
2022-10-28T10:01:12.709Z,617.65
2022-10-28T10:03:42.264Z,615.67
2022-10-28T10:06:15.478Z,657.95
2022-10-28T10:08:44.654Z,616.30
2022-10-28T10:11:22.094Z,724.85
2022-10-28T10:13:51.357Z,601.50
2022-10-28T10:16:24.974Z,622.50
2022-10-28T10:18:58.814Z,578.13
2022-10-28T10:21:43.362Z,618.05
2022-10-28T10:24:25.896Z,703.75
2022-10-28T10:26:54.695Z,583.83
2022-10-28T10:29:23.477Z,660.60
2022-10-28T10:32:17.055Z,612.72
2022-10-28T10:34:52.385Z,490.80
2022-10-28T10:37:22.982Z,674.47
2022-10-28T10:40:04.116Z,679.42
2022-10-28T10:42:32.202Z,746.22
2022-10-28T10:45:02.864Z,635.40
2022-10-28T10:47:31.135Z,713.40
2022-10-28T10:50:24.151Z,662.95
2022-10-28T10:52:57.856Z,742.75
2022-10-28T10:55:34.890Z,655.30
2022-10-28T10:58:03.681Z,684.33
2022-10-28T11:00:36.612Z,690.78
2022-10-28T11:03:07.116Z,694.25
2022-10-28T11:05:38.558Z,639.67
2022-10-28T11:08:07.771Z,671.45
2022-10-28T11:10:36.434Z,670.10
2022-10-28T11:13:07.218Z,665.25
2022-10-28T11:15:35.311Z,662.67
2022-10-28T11:18:05.590Z,672.38
2022-10-28T11:20:47.112Z,633.75
2022-10-28T11:23:38.105Z,707.15
2022-10-28T11:26:10.679Z,621.15
2022-10-28T11:28:57.603Z,593.58
2022-10-28T11:31:47.703Z,652.67
2022-10-28T11:34:30.373Z,631.15
2022-10-28T11:37:09.994Z,773.92
2022-10-28T11:39:46.059Z,588.03
2022-10-28T11:42:24.891Z,580.92
2022-10-28T11:44:56.525Z,646.22
2022-10-28T11:47:45.268Z,684.42
2022-10-28T11:50:29.996Z,695.92
2022-10-28T11:53:25.007Z,642.95
2022-10-28T11:55:57.613Z,747.92
2022-10-28T11:58:34.800Z,692.88
2022-10-28T12:01:19.908Z,566.00
2022-10-28T12:04:05.172Z,656.28
2022-10-28T12:06:51.935Z,683.20
2022-10-28T12:09:29.931Z,680.25
2022-10-28T12:12:13.622Z,682.60
2022-10-28T12:14:50.675Z,676.22
2022-10-28T12:17:26.320Z,627.97
2022-10-28T12:19:59.492Z,663.42
2022-10-28T12:22:31.602Z,774.25
2022-10-28T12:25:08.234Z,715.00
2022-10-28T12:27:41.587Z,651.40
2022-10-28T12:30:21.026Z,622.72
2022-10-28T12:32:52.872Z,701.08
2022-10-28T12:35:25.169Z,585.47
2022-10-28T12:37:58.803Z,653.60
2022-10-28T12:40:32.522Z,757.42
2022-10-28T12:43:06.686Z,726.08
2022-10-28T12:45:34.971Z,733.47
2022-10-28T12:48:12.070Z,678.33
2022-10-28T12:50:47.538Z,736.28
2022-10-28T12:53:28.882Z,571.65
2022-10-28T12:56:01.574Z,670.13
2022-10-28T12:58:35.283Z,655.90
2022-10-28T13:01:08.314Z,550.55
2022-10-28T13:03:37.436Z,668.72
2022-10-28T13:06:31.573Z,685.95
2022-10-28T13:09:22.459Z,549.45
2022-10-28T13:12:28.976Z,761.00
2022-10-28T13:15:30.810Z,653.13
2022-10-28T13:18:22.464Z,756.38
2022-10-28T13:21:01.318Z,641.08
2022-10-28T13:23:40.921Z,677.67
2022-10-28T13:26:22.741Z,624.25
2022-10-28T13:28:54.417Z,691.17
2022-10-28T13:31:24.550Z,638.95
2022-10-28T13:33:56.868Z,741.33
2022-10-28T13:36:28.275Z,634.08
2022-10-28T13:38:59.862Z,702.17
2022-10-28T13:41:31.669Z,658.42
2022-10-28T13:44:32.787Z,722.47
2022-10-28T13:47:27.206Z,716.78
2022-10-28T13:50:21.717Z,642.15
2022-10-28T13:53:45.296Z,658.95
2022-10-28T13:56:29.080Z,654.13
2022-10-28T13:59:00.416Z,609.35
2022-10-28T14:02:01.702Z,659.35
2022-10-28T14:04:41.061Z,663.38
2022-10-28T14:07:21.982Z,713.20
2022-10-28T14:09:53.644Z,561.80
2022-10-28T14:12:31.695Z,663.22
2022-10-28T14:15:08.175Z,697.47
2022-10-28T14:17:39.121Z,608.92
2022-10-28T14:20:22.297Z,663.30
2022-10-28T14:22:51.191Z,603.33
2022-10-28T14:25:56.266Z,659.65
2022-10-28T14:28:56.822Z,518.45
2022-10-28T14:31:45.192Z,649.08
2022-10-28T14:34:42.431Z,607.92
2022-10-28T14:37:54.064Z,621.35
2022-10-28T14:40:43.202Z,676.97
2022-10-28T14:43:40.699Z,776.90
2022-10-28T14:46:27.772Z,700.85
2022-10-28T14:48:57.096Z,687.95
2022-10-28T14:51:27.307Z,646.30
2022-10-28T14:53:58.752Z,798.25
2022-10-28T14:56:28.985Z,723.67
2022-10-28T14:59:01.543Z,630.35
2022-10-28T15:01:38.971Z,700.10
2022-10-28T15:04:13.333Z,599.67
2022-10-28T15:06:43.656Z,725.60
2022-10-28T15:09:21.518Z,787.40
2022-10-28T15:11:52.920Z,653.65
2022-10-28T15:14:33.957Z,608.28
2022-10-28T15:17:16.185Z,736.03
2022-10-28T15:19:45.028Z,652.42
2022-10-28T15:22:19.179Z,603.90
2022-10-28T15:24:58.472Z,775.72
2022-10-28T15:27:28.841Z,644.45
2022-10-28T15:29:57.958Z,624.92
2022-10-28T15:32:30.615Z,401.75
2022-10-28T15:34:59.048Z,458.30
2022-10-28T15:37:30.009Z,675.67
2022-10-28T15:40:22.035Z,565.83
2022-10-28T15:42:58.145Z,632.70
2022-10-28T15:45:28.009Z,657.08
2022-10-28T15:47:58.535Z,575.50
2022-10-28T15:50:30.261Z,559.75
2022-10-28T15:53:31.508Z,648.42
2022-10-28T15:56:17.959Z,479.13
2022-10-28T15:58:47.365Z,600.30
2022-10-28T16:01:38.224Z,614.97
2022-10-28T16:04:30.978Z,690.13
2022-10-28T16:07:00.011Z,547.67
2022-10-28T16:09:32.222Z,652.72
2022-10-28T16:12:03.856Z,535.20
2022-10-28T16:14:37.596Z,727.55
2022-10-28T16:17:15.513Z,546.75
2022-10-28T16:19:50.761Z,610.60
2022-10-28T16:22:19.546Z,629.72
2022-10-28T16:24:48.224Z,740.47
2022-10-28T16:27:21.563Z,682.40
2022-10-28T16:29:50.013Z,726.63
2022-10-28T16:32:20.845Z,658.50
2022-10-28T16:34:50.361Z,674.60
2022-10-28T16:37:23.573Z,700.92
2022-10-28T16:39:51.799Z,733.20
2022-10-28T16:42:21.129Z,594.40
2022-10-28T16:44:49.697Z,508.98
2022-10-28T16:47:19.716Z,592.88
2022-10-28T16:49:54.111Z,481.45
2022-10-28T16:52:28.003Z,544.72
2022-10-28T16:54:56.337Z,599.03
2022-10-28T16:59:57.548Z,537.60
2022-10-28T17:02:28.622Z,563.85
2022-10-28T17:04:58.954Z,552.00
2022-10-28T17:07:27.696Z,732.67
2022-10-28T17:09:56.863Z,538.28
2022-10-28T17:12:26.905Z,416.75
2022-10-28T17:14:55.040Z,742.15
2022-10-28T17:17:23.152Z,480.70
2022-10-28T17:19:51.212Z,563.78
2022-10-28T17:22:20.673Z,623.60
2022-10-28T17:24:48.772Z,553.40
2022-10-28T17:27:17.014Z,571.47
2022-10-28T17:29:45.145Z,391.30
2022-10-28T17:32:13.332Z,583.17
2022-10-28T17:34:41.439Z,541.33
2022-10-28T17:37:10.468Z,357.02
2022-10-28T17:39:40.020Z,459.80
2022-10-28T17:42:08.112Z,353.70
2022-10-28T17:44:36.658Z,444.73
2022-10-28T17:47:04.894Z,354.55
2022-10-28T17:49:34.358Z,453.80
2022-10-28T17:52:02.484Z,491.17
2022-10-28T17:54:30.582Z,214.65
2022-10-28T17:57:00.043Z,358.85
2022-10-28T17:59:28.167Z,553.97
2022-10-28T18:01:56.417Z,276.73
2022-10-28T18:04:26.542Z,398.05
2022-10-28T18:06:55.624Z,375.95
2022-10-28T18:09:23.921Z,328.67
2022-10-28T18:11:52.243Z,440.20
2022-10-28T18:14:21.935Z,327.77
2022-10-28T18:16:51.287Z,481.30
2022-10-28T18:19:19.404Z,326.52
2022-10-28T18:21:47.543Z,539.88
2022-10-28T18:24:15.964Z,545.65
2022-10-28T18:26:44.014Z,615.28
2022-10-28T18:29:13.230Z,514.30
2022-10-28T18:31:44.399Z,260.88
2022-10-28T18:34:12.963Z,645.22
2022-10-28T18:36:41.097Z,315.02
2022-10-28T18:39:09.804Z,716.90
2022-10-28T18:41:42.922Z,469.42
2022-10-28T18:44:14.215Z,349.83
2022-10-28T18:46:45.304Z,521.45
2022-10-28T18:49:13.483Z,448.92
2022-10-28T18:51:41.732Z,336.03
2022-10-28T18:54:09.998Z,382.60
2022-10-28T18:56:38.547Z,442.85
2022-10-28T18:59:06.734Z,436.77
2022-10-28T19:01:35.834Z,415.67
2022-10-28T19:04:06.323Z,278.87
2022-10-28T19:06:35.278Z,582.17
2022-10-28T19:09:05.221Z,479.87
2022-10-28T19:11:34.644Z,294.60
2022-10-28T19:14:04.229Z,453.17
2022-10-28T19:16:34.407Z,392.40
2022-10-28T19:19:05.979Z,596.40
2022-10-28T19:21:34.218Z,410.50
2022-10-28T19:24:02.483Z,466.87
2022-10-28T19:26:32.090Z,477.20
2022-10-28T19:29:00.373Z,474.17
2022-10-28T19:31:30.777Z,221.73
2022-10-28T19:33:59.136Z,347.60
2022-10-28T19:36:31.097Z,428.27
2022-10-28T19:38:59.784Z,194.95
2022-10-28T19:41:29.288Z,249.20
2022-10-28T19:43:59.286Z,279.10
2022-10-28T19:46:28.976Z,385.70
2022-10-28T19:48:59.115Z,166.13
2022-10-28T19:51:30.368Z,546.37
2022-10-28T19:53:59.888Z,501.90
2022-10-28T19:56:29.152Z,308.73
2022-10-28T19:58:59.304Z,227.07
2022-10-28T20:01:29.544Z,413.27
2022-10-28T20:03:58.961Z,161.13
2022-10-28T20:06:33.306Z,228.57
2022-10-28T20:09:01.723Z,249.90
2022-10-28T20:11:32.596Z,297.27
2022-10-28T20:14:02.263Z,319.03
2022-10-28T20:16:31.049Z,292.50
2022-10-28T20:18:59.692Z,492.20
2022-10-28T20:21:31.134Z,463.67
2022-10-28T20:23:59.486Z,358.10
2022-10-28T20:26:29.271Z,228.53
2022-10-28T20:28:58.482Z,149.73
2022-10-28T20:31:29.064Z,334.47
2022-10-28T20:33:58.845Z,231.83
2022-10-28T20:36:29.857Z,182.13
2022-10-28T20:38:59.717Z,361.60
2022-10-28T20:41:30.505Z,305.27
2022-10-28T20:43:58.907Z,251.47
2022-10-28T20:46:27.629Z,210.57
2022-10-28T20:48:56.669Z,410.33
2022-10-28T20:51:26.304Z,251.87
2022-10-28T20:53:56.234Z,415.80
2022-10-28T20:56:26.456Z,250.20
2022-10-28T20:58:55.643Z,474.33
2022-10-28T21:01:25.347Z,451.50
2022-10-28T21:03:55.367Z,318.90
2022-10-28T21:06:24.057Z,441.97
2022-10-28T21:08:53.525Z,330.20
2022-10-28T21:11:24.006Z,418.13
2022-10-28T21:13:53.767Z,272.57
2022-10-28T21:16:23.001Z,185.03
2022-10-28T21:18:51.737Z,255.63
2022-10-28T21:21:20.730Z,290.67
2022-10-28T21:23:48.821Z,368.07
2022-10-28T21:26:16.930Z,181.67
2022-10-28T21:28:50.381Z,244.73
2022-10-28T21:31:19.178Z,259.37
2022-10-28T21:36:22.919Z,427.37
2022-10-28T21:38:54.574Z,114.73
2022-10-28T21:41:23.487Z,305.00
2022-10-28T21:43:54.175Z,382.90
2022-10-28T21:46:25.179Z,140.10
2022-10-28T21:48:54.604Z,534.90
2022-10-28T21:51:22.756Z,297.20
2022-10-28T21:53:50.847Z,333.50
2022-10-28T21:56:21.047Z,234.43
2022-10-28T21:58:50.989Z,392.90
2022-10-28T22:01:22.874Z,250.13
2022-10-28T22:03:51.730Z,293.43
2022-10-28T22:06:19.873Z,218.33
2022-10-28T22:08:47.986Z,361.07
2022-10-28T22:11:18.092Z,287.97
2022-10-28T22:13:46.407Z,264.73
2022-10-28T22:16:16.378Z,258.83
2022-10-28T22:18:46.282Z,369.40
2022-10-28T22:21:16.668Z,347.33
2022-10-28T22:23:45.122Z,270.73
2022-10-28T22:26:16.002Z,177.30
2022-10-28T22:28:44.570Z,200.43
2022-10-28T22:31:14.446Z,97.97
2022-10-28T22:33:42.641Z,75.47
2022-10-28T22:36:13.941Z,368.03
2022-10-28T22:38:42.611Z,305.47
2022-10-28T22:41:14.184Z,256.90
2022-10-28T22:43:43.005Z,134.50
2022-10-28T22:46:11.965Z,231.30
2022-10-28T22:48:40.247Z,250.57
2022-10-28T22:51:09.658Z,327.73
2022-10-28T22:53:39.833Z,251.33
2022-10-28T22:56:08.812Z,412.83
2022-10-28T22:58:37.007Z,215.37
2022-10-28T23:01:09.573Z,235.07
2022-10-28T23:03:38.747Z,325.90
2022-10-28T23:06:07.467Z,158.17
2022-10-28T23:08:35.850Z,135.30
2022-10-28T23:11:05.943Z,231.17
2022-10-28T23:13:34.293Z,146.17
2022-10-28T23:16:06.163Z,150.97
2022-10-28T23:18:34.254Z,386.27
2022-10-28T23:21:07.126Z,203.47
2022-10-28T23:23:35.214Z,293.93
2022-10-28T23:26:05.164Z,250.20
2022-10-28T23:28:33.484Z,169.00
2022-10-28T23:31:02.146Z,216.60
2022-10-28T23:33:31.091Z,243.47
2022-10-28T23:36:00.966Z,269.37
2022-10-28T23:38:29.375Z,506.30
2022-10-28T23:40:59.052Z,244.37
2022-10-28T23:43:29.103Z,190.60
2022-10-28T23:45:57.645Z,221.07
2022-10-28T23:48:27.268Z,164.67
2022-10-28T23:50:56.241Z,318.73
2022-10-28T23:53:24.915Z,283.43
2022-10-28T23:55:53.298Z,223.80
2022-10-28T23:58:23.096Z,200.50
